sensor_id;sensor_type;location;lat;lon;timestamp;temperature;humidity
1461;DHT22;724;49.910;12.530;2023-11-19T00:00:10;0.80;99.90
1461;DHT22;724;49.910;12.530;2023-11-19T00:02:37;0.90;99.90
1461;DHT22;724;49.910;12.530;2023-11-19T00:05:04;0.90;99.90
1461;DHT22;724;49.910;12.530;2023-11-19T00:07:34;0.90;99.90
1461;DHT22;724;49.910;12.530;2023-11-19T00:10:01;0.80;99.90
1461;DHT22;724;49.910;12.530;2023-11-19T00:12:36;0.90;99.90
1461;DHT22;724;49.910;12.530;2023-11-19T00:15:03;0.80;99.90
1461;DHT22;724;49.910;12.530;2023-11-19T00:17:32;0.80;99.90
1461;DHT22;724;49.910;12.530;2023-11-19T00:19:58;0.90;99.90
1461;DHT22;724;49.910;12.530;2023-11-19T00:22:25;0.90;99.90
1461;DHT22;724;49.910;12.530;2023-11-19T00:24:52;0.90;99.90
1461;DHT22;724;49.910;12.530;2023-11-19T00:27:19;0.90;99.90
1461;DHT22;724;49.910;12.530;2023-11-19T00:29:47;0.90;99.90
1461;DHT22;724;49.910;12.530;2023-11-19T00:32:14;0.80;99.90
1461;DHT22;724;49.910;12.530;2023-11-19T00:34:44;0.80;99.90
1461;DHT22;724;49.910;12.530;2023-11-19T00:37:14;0.80;99.90
1461;DHT22;724;49.910;12.530;2023-11-19T00:39:41;0.80;99.90
1461;DHT22;724;49.910;12.530;2023-11-19T00:42:09;0.80;99.90
1461;DHT22;724;49.910;12.530;2023-11-19T00:44:36;0.80;99.90
1461;DHT22;724;49.910;12.530;2023-11-19T00:47:03;0.80;99.90
1461;DHT22;724;49.910;12.530;2023-11-19T00:49:32;0.80;99.90
1461;DHT22;724;49.910;12.530;2023-11-19T00:52:00;0.80;99.90
1461;DHT22;724;49.910;12.530;2023-11-19T00:54:27;0.80;99.90
1461;DHT22;724;49.910;12.530;2023-11-19T00:56:55;0.80;99.90
1461;DHT22;724;49.910;12.530;2023-11-19T00:59:22;0.80;99.90
1461;DHT22;724;49.910;12.530;2023-11-19T01:01:49;0.80;99.90
1461;DHT22;724;49.910;12.530;2023-11-19T01:04:16;0.70;99.90
1461;DHT22;724;49.910;12.530;2023-11-19T01:06:43;0.80;99.90
1461;DHT22;724;49.910;12.530;2023-11-19T01:09:11;0.80;99.90
1461;DHT22;724;49.910;12.530;2023-11-19T01:11:38;0.80;99.90
1461;DHT22;724;49.910;12.530;2023-11-19T01:14:05;0.70;99.90
1461;DHT22;724;49.910;12.530;2023-11-19T01:16:32;0.70;99.90
1461;DHT22;724;49.910;12.530;2023-11-19T01:18:59;0.80;99.90
1461;DHT22;724;49.910;12.530;2023-11-19T01:21:29;0.70;99.90
1461;DHT22;724;49.910;12.530;2023-11-19T01:23:57;0.70;99.90
1461;DHT22;724;49.910;12.530;2023-11-19T01:26:25;0.80;99.90
1461;DHT22;724;49.910;12.530;2023-11-19T01:28:52;0.80;99.90
1461;DHT22;724;49.910;12.530;2023-11-19T01:31:18;0.90;99.90
1461;DHT22;724;49.910;12.530;2023-11-19T01:33:45;0.90;99.90
1461;DHT22;724;49.910;12.530;2023-11-19T01:36:13;0.90;99.90
1461;DHT22;724;49.910;12.530;2023-11-19T01:38:40;1.00;99.90
1461;DHT22;724;49.910;12.530;2023-11-19T01:41:06;1.00;99.90
1461;DHT22;724;49.910;12.530;2023-11-19T01:43:36;1.10;99.90
1461;DHT22;724;49.910;12.530;2023-11-19T01:46:05;1.00;99.90
1461;DHT22;724;49.910;12.530;2023-11-19T01:48:34;1.10;99.90
1461;DHT22;724;49.910;12.530;2023-11-19T01:51:02;1.00;99.90
1461;DHT22;724;49.910;12.530;2023-11-19T01:53:30;1.00;99.90
1461;DHT22;724;49.910;12.530;2023-11-19T01:55:57;1.10;99.90
1461;DHT22;724;49.910;12.530;2023-11-19T01:58:24;1.10;99.90
1461;DHT22;724;49.910;12.530;2023-11-19T02:00:53;1.20;99.90
1461;DHT22;724;49.910;12.530;2023-11-19T02:03:20;1.10;99.90
1461;DHT22;724;49.910;12.530;2023-11-19T02:05:48;1.00;99.90
1461;DHT22;724;49.910;12.530;2023-11-19T02:08:16;0.80;99.90
1461;DHT22;724;49.910;12.530;2023-11-19T02:10:43;0.70;99.90
1461;DHT22;724;49.910;12.530;2023-11-19T02:13:10;0.80;99.90
1461;DHT22;724;49.910;12.530;2023-11-19T02:15:39;0.80;99.90
1461;DHT22;724;49.910;12.530;2023-11-19T02:18:23;0.70;99.90
1461;DHT22;724;49.910;12.530;2023-11-19T02:20:53;0.80;99.90
1461;DHT22;724;49.910;12.530;2023-11-19T02:23:20;0.90;99.90
1461;DHT22;724;49.910;12.530;2023-11-19T02:25:51;0.70;99.90
1461;DHT22;724;49.910;12.530;2023-11-19T02:28:22;0.70;99.90
1461;DHT22;724;49.910;12.530;2023-11-19T02:30:49;0.70;99.90
1461;DHT22;724;49.910;12.530;2023-11-19T02:33:16;0.70;99.90
1461;DHT22;724;49.910;12.530;2023-11-19T02:35:43;0.60;99.90
1461;DHT22;724;49.910;12.530;2023-11-19T02:38:10;0.70;99.90
1461;DHT22;724;49.910;12.530;2023-11-19T02:40:36;0.90;99.90
1461;DHT22;724;49.910;12.530;2023-11-19T02:43:03;0.80;99.90
1461;DHT22;724;49.910;12.530;2023-11-19T02:45:32;0.90;99.90
1461;DHT22;724;49.910;12.530;2023-11-19T02:47:59;0.90;99.90
1461;DHT22;724;49.910;12.530;2023-11-19T02:50:27;1.00;99.90
1461;DHT22;724;49.910;12.530;2023-11-19T02:52:55;1.00;99.90
1461;DHT22;724;49.910;12.530;2023-11-19T02:55:22;1.00;99.90
1461;DHT22;724;49.910;12.530;2023-11-19T02:57:50;1.00;99.90
1461;DHT22;724;49.910;12.530;2023-11-19T03:00:19;1.10;99.90
1461;DHT22;724;49.910;12.530;2023-11-19T03:02:50;1.20;99.90
1461;DHT22;724;49.910;12.530;2023-11-19T03:05:25;1.20;99.90
1461;DHT22;724;49.910;12.530;2023-11-19T03:07:55;1.20;99.90
1461;DHT22;724;49.910;12.530;2023-11-19T03:10:22;1.20;99.90
1461;DHT22;724;49.910;12.530;2023-11-19T03:12:49;1.20;99.90
1461;DHT22;724;49.910;12.530;2023-11-19T03:15:16;1.10;99.90
1461;DHT22;724;49.910;12.530;2023-11-19T03:17:43;1.10;99.90
1461;DHT22;724;49.910;12.530;2023-11-19T03:20:13;1.10;99.90
1461;DHT22;724;49.910;12.530;2023-11-19T03:22:42;1.00;99.90
1461;DHT22;724;49.910;12.530;2023-11-19T03:25:09;1.20;99.90
1461;DHT22;724;49.910;12.530;2023-11-19T03:27:37;1.10;99.90
1461;DHT22;724;49.910;12.530;2023-11-19T03:30:05;1.20;99.90
1461;DHT22;724;49.910;12.530;2023-11-19T03:32:32;1.30;99.90
1461;DHT22;724;49.910;12.530;2023-11-19T03:35:01;1.30;99.90
1461;DHT22;724;49.910;12.530;2023-11-19T03:37:31;1.30;99.90
1461;DHT22;724;49.910;12.530;2023-11-19T03:39:59;1.40;99.90
1461;DHT22;724;49.910;12.530;2023-11-19T03:42:26;1.40;99.90
1461;DHT22;724;49.910;12.530;2023-11-19T03:44:53;1.40;99.90
1461;DHT22;724;49.910;12.530;2023-11-19T03:47:20;1.40;99.90
1461;DHT22;724;49.910;12.530;2023-11-19T03:49:48;1.50;99.90
1461;DHT22;724;49.910;12.530;2023-11-19T03:52:16;1.40;99.90
1461;DHT22;724;49.910;12.530;2023-11-19T03:54:45;1.30;99.90
1461;DHT22;724;49.910;12.530;2023-11-19T03:57:14;1.40;99.90
1461;DHT22;724;49.910;12.530;2023-11-19T03:59:43;1.40;99.90
1461;DHT22;724;49.910;12.530;2023-11-19T04:02:10;1.50;99.90
1461;DHT22;724;49.910;12.530;2023-11-19T04:04:36;1.30;99.90
1461;DHT22;724;49.910;12.530;2023-11-19T04:07:04;1.60;99.90
1461;DHT22;724;49.910;12.530;2023-11-19T04:09:32;1.50;99.90
1461;DHT22;724;49.910;12.530;2023-11-19T04:12:00;1.60;99.90
1461;DHT22;724;49.910;12.530;2023-11-19T04:14:27;1.60;99.90
1461;DHT22;724;49.910;12.530;2023-11-19T04:16:54;1.80;99.90
1461;DHT22;724;49.910;12.530;2023-11-19T04:19:22;2.10;99.90
1461;DHT22;724;49.910;12.530;2023-11-19T04:21:50;2.30;99.90
1461;DHT22;724;49.910;12.530;2023-11-19T04:24:17;2.60;99.90
1461;DHT22;724;49.910;12.530;2023-11-19T04:26:45;2.80;99.90
1461;DHT22;724;49.910;12.530;2023-11-19T04:29:15;2.90;99.90
1461;DHT22;724;49.910;12.530;2023-11-19T04:31:42;2.90;99.90
1461;DHT22;724;49.910;12.530;2023-11-19T04:34:09;3.10;99.90
1461;DHT22;724;49.910;12.530;2023-11-19T04:36:37;3.20;99.90
1461;DHT22;724;49.910;12.530;2023-11-19T04:39:05;3.20;99.90
1461;DHT22;724;49.910;12.530;2023-11-19T04:41:35;3.10;99.90
1461;DHT22;724;49.910;12.530;2023-11-19T04:44:02;3.20;99.90
1461;DHT22;724;49.910;12.530;2023-11-19T04:46:30;3.20;99.90
1461;DHT22;724;49.910;12.530;2023-11-19T04:48:59;3.10;99.90
1461;DHT22;724;49.910;12.530;2023-11-19T04:51:25;3.20;99.90
1461;DHT22;724;49.910;12.530;2023-11-19T04:53:52;3.20;99.90
1461;DHT22;724;49.910;12.530;2023-11-19T04:56:19;3.20;99.90
1461;DHT22;724;49.910;12.530;2023-11-19T04:58:48;3.20;99.90
1461;DHT22;724;49.910;12.530;2023-11-19T05:01:15;3.40;99.90
1461;DHT22;724;49.910;12.530;2023-11-19T05:03:44;3.40;99.90
1461;DHT22;724;49.910;12.530;2023-11-19T05:06:12;3.30;99.90
1461;DHT22;724;49.910;12.530;2023-11-19T05:08:38;3.30;99.90
1461;DHT22;724;49.910;12.530;2023-11-19T05:11:05;3.30;99.90
1461;DHT22;724;49.910;12.530;2023-11-19T05:13:32;3.40;99.90
1461;DHT22;724;49.910;12.530;2023-11-19T05:16:00;3.40;99.90
1461;DHT22;724;49.910;12.530;2023-11-19T05:18:29;3.40;99.90
1461;DHT22;724;49.910;12.530;2023-11-19T05:21:00;3.40;99.90
1461;DHT22;724;49.910;12.530;2023-11-19T05:23:28;3.50;99.90
1461;DHT22;724;49.910;12.530;2023-11-19T05:25:55;3.50;99.90
1461;DHT22;724;49.910;12.530;2023-11-19T05:28:25;3.50;99.90
1461;DHT22;724;49.910;12.530;2023-11-19T05:30:52;3.50;99.90
1461;DHT22;724;49.910;12.530;2023-11-19T05:33:19;3.50;99.90
1461;DHT22;724;49.910;12.530;2023-11-19T05:35:47;3.50;99.90
1461;DHT22;724;49.910;12.530;2023-11-19T05:38:16;3.50;99.90
1461;DHT22;724;49.910;12.530;2023-11-19T05:40:44;3.50;99.90
1461;DHT22;724;49.910;12.530;2023-11-19T05:43:13;3.50;99.90
1461;DHT22;724;49.910;12.530;2023-11-19T05:45:42;3.50;99.90
1461;DHT22;724;49.910;12.530;2023-11-19T05:48:09;3.40;99.90
1461;DHT22;724;49.910;12.530;2023-11-19T05:50:36;3.40;99.90
1461;DHT22;724;49.910;12.530;2023-11-19T05:53:02;3.40;99.90
1461;DHT22;724;49.910;12.530;2023-11-19T05:55:33;3.40;99.90
1461;DHT22;724;49.910;12.530;2023-11-19T05:58:01;3.40;99.90
1461;DHT22;724;49.910;12.530;2023-11-19T06:00:31;3.40;99.90
1461;DHT22;724;49.910;12.530;2023-11-19T06:02:57;3.40;99.90
1461;DHT22;724;49.910;12.530;2023-11-19T06:05:24;3.40;99.90
1461;DHT22;724;49.910;12.530;2023-11-19T06:07:51;3.40;99.90
1461;DHT22;724;49.910;12.530;2023-11-19T06:10:18;3.40;99.90
1461;DHT22;724;49.910;12.530;2023-11-19T06:12:48;3.40;99.90
1461;DHT22;724;49.910;12.530;2023-11-19T06:15:21;3.50;99.90
1461;DHT22;724;49.910;12.530;2023-11-19T06:17:49;3.60;99.90
1461;DHT22;724;49.910;12.530;2023-11-19T06:20:16;3.60;99.90
1461;DHT22;724;49.910;12.530;2023-11-19T06:22:44;3.60;99.90
1461;DHT22;724;49.910;12.530;2023-11-19T06:25:11;3.70;99.90
1461;DHT22;724;49.910;12.530;2023-11-19T06:27:40;3.80;99.90
1461;DHT22;724;49.910;12.530;2023-11-19T06:30:11;3.80;99.90
1461;DHT22;724;49.910;12.530;2023-11-19T06:32:39;3.90;99.90
1461;DHT22;724;49.910;12.530;2023-11-19T06:35:06;3.90;99.90
1461;DHT22;724;49.910;12.530;2023-11-19T06:37:35;3.90;99.90
1461;DHT22;724;49.910;12.530;2023-11-19T06:40:02;3.90;99.90
1461;DHT22;724;49.910;12.530;2023-11-19T06:42:30;4.00;99.90
1461;DHT22;724;49.910;12.530;2023-11-19T06:44:57;4.00;99.90
1461;DHT22;724;49.910;12.530;2023-11-19T06:47:26;4.10;99.90
1461;DHT22;724;49.910;12.530;2023-11-19T06:49:53;4.10;99.90
1461;DHT22;724;49.910;12.530;2023-11-19T06:52:20;4.10;99.90
1461;DHT22;724;49.910;12.530;2023-11-19T06:54:47;4.10;99.90
1461;DHT22;724;49.910;12.530;2023-11-19T06:57:14;4.10;99.90
1461;DHT22;724;49.910;12.530;2023-11-19T06:59:42;4.20;99.90
1461;DHT22;724;49.910;12.530;2023-11-19T07:02:09;4.20;99.90
1461;DHT22;724;49.910;12.530;2023-11-19T07:04:37;4.20;99.90
1461;DHT22;724;49.910;12.530;2023-11-19T07:07:04;4.20;99.90
1461;DHT22;724;49.910;12.530;2023-11-19T07:09:31;4.30;99.90
1461;DHT22;724;49.910;12.530;2023-11-19T07:11:59;4.30;99.90
1461;DHT22;724;49.910;12.530;2023-11-19T07:14:27;4.30;99.90
1461;DHT22;724;49.910;12.530;2023-11-19T07:16:54;4.30;99.90
1461;DHT22;724;49.910;12.530;2023-11-19T07:19:21;4.40;99.90
1461;DHT22;724;49.910;12.530;2023-11-19T07:21:49;4.40;99.90
1461;DHT22;724;49.910;12.530;2023-11-19T07:24:16;4.40;99.90
1461;DHT22;724;49.910;12.530;2023-11-19T07:26:43;4.50;99.90
1461;DHT22;724;49.910;12.530;2023-11-19T07:29:10;4.50;99.90
1461;DHT22;724;49.910;12.530;2023-11-19T07:31:37;4.60;99.90
1461;DHT22;724;49.910;12.530;2023-11-19T07:34:04;4.70;99.90
1461;DHT22;724;49.910;12.530;2023-11-19T07:36:32;4.70;99.90
1461;DHT22;724;49.910;12.530;2023-11-19T07:39:00;4.70;99.90
1461;DHT22;724;49.910;12.530;2023-11-19T07:41:26;4.70;99.90
1461;DHT22;724;49.910;12.530;2023-11-19T07:43:54;4.80;99.90
1461;DHT22;724;49.910;12.530;2023-11-19T07:46:21;4.70;99.90
1461;DHT22;724;49.910;12.530;2023-11-19T07:48:48;4.70;99.90
1461;DHT22;724;49.910;12.530;2023-11-19T07:51:15;4.80;99.90
1461;DHT22;724;49.910;12.530;2023-11-19T07:53:42;4.80;99.90
1461;DHT22;724;49.910;12.530;2023-11-19T07:56:10;4.70;99.90
1461;DHT22;724;49.910;12.530;2023-11-19T07:58:37;4.80;99.90
1461;DHT22;724;49.910;12.530;2023-11-19T08:01:05;4.80;99.90
1461;DHT22;724;49.910;12.530;2023-11-19T08:03:32;4.80;99.90
1461;DHT22;724;49.910;12.530;2023-11-19T08:06:00;4.90;99.90
1461;DHT22;724;49.910;12.530;2023-11-19T08:08:27;5.00;99.90
1461;DHT22;724;49.910;12.530;2023-11-19T08:10:55;5.00;99.90
1461;DHT22;724;49.910;12.530;2023-11-19T08:13:23;4.90;99.90
1461;DHT22;724;49.910;12.530;2023-11-19T08:15:50;5.00;99.90
1461;DHT22;724;49.910;12.530;2023-11-19T08:18:17;5.00;99.90
1461;DHT22;724;49.910;12.530;2023-11-19T08:20:44;5.10;99.90
1461;DHT22;724;49.910;12.530;2023-11-19T08:23:13;5.10;99.90
1461;DHT22;724;49.910;12.530;2023-11-19T08:25:39;5.10;99.90
1461;DHT22;724;49.910;12.530;2023-11-19T08:28:06;5.10;99.90
1461;DHT22;724;49.910;12.530;2023-11-19T08:30:34;5.20;99.90
1461;DHT22;724;49.910;12.530;2023-11-19T08:33:01;5.20;99.90
1461;DHT22;724;49.910;12.530;2023-11-19T08:35:29;5.20;99.90
1461;DHT22;724;49.910;12.530;2023-11-19T08:37:56;5.20;99.90
1461;DHT22;724;49.910;12.530;2023-11-19T08:40:24;5.20;99.90
1461;DHT22;724;49.910;12.530;2023-11-19T08:42:51;5.40;99.90
1461;DHT22;724;49.910;12.530;2023-11-19T08:45:18;5.40;99.90
1461;DHT22;724;49.910;12.530;2023-11-19T08:47:46;5.40;99.90
1461;DHT22;724;49.910;12.530;2023-11-19T08:50:13;5.50;99.90
1461;DHT22;724;49.910;12.530;2023-11-19T08:52:40;5.50;99.90
1461;DHT22;724;49.910;12.530;2023-11-19T08:55:07;5.60;99.90
1461;DHT22;724;49.910;12.530;2023-11-19T08:57:35;5.60;99.90
1461;DHT22;724;49.910;12.530;2023-11-19T09:00:02;5.60;99.90
1461;DHT22;724;49.910;12.530;2023-11-19T09:02:30;5.60;99.90
1461;DHT22;724;49.910;12.530;2023-11-19T09:04:59;5.70;99.90
1461;DHT22;724;49.910;12.530;2023-11-19T09:07:26;5.80;99.90
1461;DHT22;724;49.910;12.530;2023-11-19T09:09:53;5.80;99.90
1461;DHT22;724;49.910;12.530;2023-11-19T09:12:19;5.70;99.90
1461;DHT22;724;49.910;12.530;2023-11-19T09:14:46;5.70;99.90
1461;DHT22;724;49.910;12.530;2023-11-19T09:17:14;5.80;99.90
1461;DHT22;724;49.910;12.530;2023-11-19T09:19:43;5.80;99.90
1461;DHT22;724;49.910;12.530;2023-11-19T09:22:11;5.80;99.90
1461;DHT22;724;49.910;12.530;2023-11-19T09:24:37;5.80;99.90
1461;DHT22;724;49.910;12.530;2023-11-19T09:27:04;5.90;99.90
1461;DHT22;724;49.910;12.530;2023-11-19T09:29:32;5.90;99.90
1461;DHT22;724;49.910;12.530;2023-11-19T09:31:59;6.00;99.90
1461;DHT22;724;49.910;12.530;2023-11-19T09:34:25;6.10;99.90
1461;DHT22;724;49.910;12.530;2023-11-19T09:36:53;6.30;99.90
1461;DHT22;724;49.910;12.530;2023-11-19T09:39:21;6.30;99.90
1461;DHT22;724;49.910;12.530;2023-11-19T09:41:48;6.40;99.90
1461;DHT22;724;49.910;12.530;2023-11-19T09:44:15;6.40;99.90
1461;DHT22;724;49.910;12.530;2023-11-19T09:46:44;6.30;99.90
1461;DHT22;724;49.910;12.530;2023-11-19T09:49:13;6.30;99.90
1461;DHT22;724;49.910;12.530;2023-11-19T09:51:40;6.30;99.90
1461;DHT22;724;49.910;12.530;2023-11-19T09:54:07;6.30;99.90
1461;DHT22;724;49.910;12.530;2023-11-19T09:56:38;6.40;99.90
1461;DHT22;724;49.910;12.530;2023-11-19T09:59:05;6.40;99.90
1461;DHT22;724;49.910;12.530;2023-11-19T10:01:32;6.40;99.90
1461;DHT22;724;49.910;12.530;2023-11-19T10:04:00;6.40;99.90
1461;DHT22;724;49.910;12.530;2023-11-19T10:06:27;6.50;99.90
1461;DHT22;724;49.910;12.530;2023-11-19T10:08:55;6.50;99.90
1461;DHT22;724;49.910;12.530;2023-11-19T10:11:22;6.60;99.90
1461;DHT22;724;49.910;12.530;2023-11-19T10:13:51;6.60;99.90
1461;DHT22;724;49.910;12.530;2023-11-19T10:16:18;6.60;99.90
1461;DHT22;724;49.910;12.530;2023-11-19T10:18:46;6.70;99.90
1461;DHT22;724;49.910;12.530;2023-11-19T10:21:13;6.70;99.90
1461;DHT22;724;49.910;12.530;2023-11-19T10:23:49;6.70;99.90
1461;DHT22;724;49.910;12.530;2023-11-19T10:26:17;6.80;99.90
1461;DHT22;724;49.910;12.530;2023-11-19T10:28:45;6.80;99.90
1461;DHT22;724;49.910;12.530;2023-11-19T10:31:14;6.80;99.90
1461;DHT22;724;49.910;12.530;2023-11-19T10:33:41;6.90;99.90
1461;DHT22;724;49.910;12.530;2023-11-19T10:36:10;6.90;99.90
1461;DHT22;724;49.910;12.530;2023-11-19T10:38:38;7.00;99.90
1461;DHT22;724;49.910;12.530;2023-11-19T10:41:05;7.20;99.90
1461;DHT22;724;49.910;12.530;2023-11-19T10:43:42;7.40;99.90
1461;DHT22;724;49.910;12.530;2023-11-19T10:46:10;7.40;99.90
1461;DHT22;724;49.910;12.530;2023-11-19T10:48:39;7.50;99.90
1461;DHT22;724;49.910;12.530;2023-11-19T10:51:07;7.50;99.90
1461;DHT22;724;49.910;12.530;2023-11-19T10:53:36;7.50;99.90
1461;DHT22;724;49.910;12.530;2023-11-19T10:56:06;7.60;99.90
1461;DHT22;724;49.910;12.530;2023-11-19T10:58:36;7.70;99.90
1461;DHT22;724;49.910;12.530;2023-11-19T11:01:11;7.80;99.90
1461;DHT22;724;49.910;12.530;2023-11-19T11:03:41;7.60;99.90
1461;DHT22;724;49.910;12.530;2023-11-19T11:06:13;7.60;99.90
1461;DHT22;724;49.910;12.530;2023-11-19T11:08:40;7.60;99.90
1461;DHT22;724;49.910;12.530;2023-11-19T11:11:08;7.60;99.90
1461;DHT22;724;49.910;12.530;2023-11-19T11:13:37;7.70;99.90
1461;DHT22;724;49.910;12.530;2023-11-19T11:16:06;7.60;99.90
1461;DHT22;724;49.910;12.530;2023-11-19T11:18:33;7.60;99.90
1461;DHT22;724;49.910;12.530;2023-11-19T11:21:06;7.60;99.90
1461;DHT22;724;49.910;12.530;2023-11-19T11:26:59;7.50;99.90
1461;DHT22;724;49.910;12.530;2023-11-19T11:29:37;7.50;99.90
1461;DHT22;724;49.910;12.530;2023-11-19T11:32:16;7.60;99.90
1461;DHT22;724;49.910;12.530;2023-11-19T11:37:46;7.50;99.90
1461;DHT22;724;49.910;12.530;2023-11-19T11:40:15;7.50;99.90
1461;DHT22;724;49.910;12.530;2023-11-19T11:42:43;7.50;99.90
1461;DHT22;724;49.910;12.530;2023-11-19T11:45:11;7.50;99.90
1461;DHT22;724;49.910;12.530;2023-11-19T11:48:08;7.50;99.90
1461;DHT22;724;49.910;12.530;2023-11-19T11:50:51;7.50;99.90
1461;DHT22;724;49.910;12.530;2023-11-19T11:53:20;7.60;99.90
1461;DHT22;724;49.910;12.530;2023-11-19T11:55:56;7.60;99.90
1461;DHT22;724;49.910;12.530;2023-11-19T11:58:32;7.60;99.90
1461;DHT22;724;49.910;12.530;2023-11-19T12:01:03;7.60;99.90
1461;DHT22;724;49.910;12.530;2023-11-19T12:03:31;7.60;99.90
1461;DHT22;724;49.910;12.530;2023-11-19T12:05:58;7.60;99.90
1461;DHT22;724;49.910;12.530;2023-11-19T12:08:28;7.60;99.90
1461;DHT22;724;49.910;12.530;2023-11-19T12:10:56;7.60;99.90
1461;DHT22;724;49.910;12.530;2023-11-19T12:13:25;7.60;99.90
1461;DHT22;724;49.910;12.530;2023-11-19T12:16:08;7.60;99.90
1461;DHT22;724;49.910;12.530;2023-11-19T12:18:36;7.70;99.90
1461;DHT22;724;49.910;12.530;2023-11-19T12:21:05;7.60;99.90
1461;DHT22;724;49.910;12.530;2023-11-19T12:23:44;7.60;99.90
1461;DHT22;724;49.910;12.530;2023-11-19T12:26:32;7.60;99.90
1461;DHT22;724;49.910;12.530;2023-11-19T12:29:00;7.70;99.90
1461;DHT22;724;49.910;12.530;2023-11-19T12:31:29;7.70;99.90
1461;DHT22;724;49.910;12.530;2023-11-19T12:33:57;7.80;99.90
1461;DHT22;724;49.910;12.530;2023-11-19T12:36:25;7.80;99.90
1461;DHT22;724;49.910;12.530;2023-11-19T12:38:53;8.00;99.90
1461;DHT22;724;49.910;12.530;2023-11-19T12:41:20;8.10;99.90
1461;DHT22;724;49.910;12.530;2023-11-19T12:43:49;8.20;99.90
1461;DHT22;724;49.910;12.530;2023-11-19T12:46:19;8.20;99.90
1461;DHT22;724;49.910;12.530;2023-11-19T12:48:47;8.20;99.90
1461;DHT22;724;49.910;12.530;2023-11-19T12:51:13;8.20;99.90
1461;DHT22;724;49.910;12.530;2023-11-19T12:53:48;8.30;99.90
1461;DHT22;724;49.910;12.530;2023-11-19T12:56:17;8.40;99.90
1461;DHT22;724;49.910;12.530;2023-11-19T12:58:43;8.70;99.90
1461;DHT22;724;49.910;12.530;2023-11-19T13:01:16;8.90;99.90
1461;DHT22;724;49.910;12.530;2023-11-19T13:03:43;9.00;99.90
1461;DHT22;724;49.910;12.530;2023-11-19T13:06:12;9.00;99.90
1461;DHT22;724;49.910;12.530;2023-11-19T13:08:40;8.90;99.90
1461;DHT22;724;49.910;12.530;2023-11-19T13:11:07;8.80;99.90
1461;DHT22;724;49.910;12.530;2023-11-19T13:13:54;8.80;99.90
1461;DHT22;724;49.910;12.530;2023-11-19T13:16:21;8.70;99.90
1461;DHT22;724;49.910;12.530;2023-11-19T13:18:48;8.70;99.90
1461;DHT22;724;49.910;12.530;2023-11-19T13:21:15;8.60;99.90
1461;DHT22;724;49.910;12.530;2023-11-19T13:23:42;8.60;99.90
1461;DHT22;724;49.910;12.530;2023-11-19T13:26:09;8.60;99.90
1461;DHT22;724;49.910;12.530;2023-11-19T13:28:36;8.60;99.90
1461;DHT22;724;49.910;12.530;2023-11-19T13:31:05;8.60;99.90
1461;DHT22;724;49.910;12.530;2023-11-19T13:33:32;8.60;99.90
1461;DHT22;724;49.910;12.530;2023-11-19T13:35:58;8.50;99.90
1461;DHT22;724;49.910;12.530;2023-11-19T13:38:31;8.50;99.90
1461;DHT22;724;49.910;12.530;2023-11-19T13:40:57;8.50;99.90
1461;DHT22;724;49.910;12.530;2023-11-19T13:43:24;8.50;99.90
1461;DHT22;724;49.910;12.530;2023-11-19T13:45:51;8.50;99.90
1461;DHT22;724;49.910;12.530;2023-11-19T13:48:20;8.50;99.90
1461;DHT22;724;49.910;12.530;2023-11-19T13:50:46;8.50;99.90
1461;DHT22;724;49.910;12.530;2023-11-19T13:53:13;8.50;99.90
1461;DHT22;724;49.910;12.530;2023-11-19T13:55:40;8.60;99.90
1461;DHT22;724;49.910;12.530;2023-11-19T13:58:08;8.60;99.90
1461;DHT22;724;49.910;12.530;2023-11-19T14:00:34;8.50;99.90
1461;DHT22;724;49.910;12.530;2023-11-19T14:03:01;8.40;99.90
1461;DHT22;724;49.910;12.530;2023-11-19T14:05:30;8.50;99.90
1461;DHT22;724;49.910;12.530;2023-11-19T14:07:57;8.40;99.90
1461;DHT22;724;49.910;12.530;2023-11-19T14:10:24;8.40;99.90
1461;DHT22;724;49.910;12.530;2023-11-19T14:12:50;8.40;99.90
1461;DHT22;724;49.910;12.530;2023-11-19T14:15:17;8.40;99.90
1461;DHT22;724;49.910;12.530;2023-11-19T14:17:44;8.30;99.90
1461;DHT22;724;49.910;12.530;2023-11-19T14:20:11;8.30;99.90
1461;DHT22;724;49.910;12.530;2023-11-19T14:22:42;8.30;99.90
1461;DHT22;724;49.910;12.530;2023-11-19T14:25:10;8.30;99.90
1461;DHT22;724;49.910;12.530;2023-11-19T14:27:37;8.30;99.90
1461;DHT22;724;49.910;12.530;2023-11-19T14:30:07;8.20;99.90
1461;DHT22;724;49.910;12.530;2023-11-19T14:32:36;8.20;99.90
1461;DHT22;724;49.910;12.530;2023-11-19T14:35:03;8.20;99.90
1461;DHT22;724;49.910;12.530;2023-11-19T14:37:30;8.10;99.90
1461;DHT22;724;49.910;12.530;2023-11-19T14:39:58;8.10;99.90
1461;DHT22;724;49.910;12.530;2023-11-19T14:42:26;8.10;99.90
1461;DHT22;724;49.910;12.530;2023-11-19T14:44:53;8.10;99.90
1461;DHT22;724;49.910;12.530;2023-11-19T14:47:22;8.00;99.90
1461;DHT22;724;49.910;12.530;2023-11-19T14:49:49;8.00;99.90
1461;DHT22;724;49.910;12.530;2023-11-19T14:52:16;8.00;99.90
1461;DHT22;724;49.910;12.530;2023-11-19T14:54:43;8.00;99.90
1461;DHT22;724;49.910;12.530;2023-11-19T14:57:11;8.00;99.90
1461;DHT22;724;49.910;12.530;2023-11-19T14:59:38;8.00;99.90
1461;DHT22;724;49.910;12.530;2023-11-19T15:02:06;8.00;99.90
1461;DHT22;724;49.910;12.530;2023-11-19T15:04:33;7.90;99.90
1461;DHT22;724;49.910;12.530;2023-11-19T15:07:00;7.90;99.90
1461;DHT22;724;49.910;12.530;2023-11-19T15:09:30;7.80;99.90
1461;DHT22;724;49.910;12.530;2023-11-19T15:11:58;7.80;99.90
1461;DHT22;724;49.910;12.530;2023-11-19T15:14:26;7.80;99.90
1461;DHT22;724;49.910;12.530;2023-11-19T15:16:54;7.90;99.90
1461;DHT22;724;49.910;12.530;2023-11-19T15:19:21;7.80;99.90
1461;DHT22;724;49.910;12.530;2023-11-19T15:21:48;7.70;99.90
1461;DHT22;724;49.910;12.530;2023-11-19T15:24:14;7.70;99.90
1461;DHT22;724;49.910;12.530;2023-11-19T15:26:41;7.70;99.90
1461;DHT22;724;49.910;12.530;2023-11-19T15:29:08;7.70;99.90
1461;DHT22;724;49.910;12.530;2023-11-19T15:31:36;7.80;99.90
1461;DHT22;724;49.910;12.530;2023-11-19T15:34:03;7.80;99.90
1461;DHT22;724;49.910;12.530;2023-11-19T15:36:29;7.70;99.90
1461;DHT22;724;49.910;12.530;2023-11-19T15:38:57;7.80;99.90
1461;DHT22;724;49.910;12.530;2023-11-19T15:41:24;7.80;99.90
1461;DHT22;724;49.910;12.530;2023-11-19T15:43:50;7.80;99.90
1461;DHT22;724;49.910;12.530;2023-11-19T15:46:17;7.80;99.90
1461;DHT22;724;49.910;12.530;2023-11-19T15:48:45;7.80;99.90
1461;DHT22;724;49.910;12.530;2023-11-19T15:51:12;7.80;99.90
1461;DHT22;724;49.910;12.530;2023-11-19T15:53:39;7.70;99.90
1461;DHT22;724;49.910;12.530;2023-11-19T15:56:08;7.70;99.90
1461;DHT22;724;49.910;12.530;2023-11-19T15:58:35;7.80;99.90
1461;DHT22;724;49.910;12.530;2023-11-19T16:01:02;7.90;99.90
1461;DHT22;724;49.910;12.530;2023-11-19T16:03:30;7.90;99.90
1461;DHT22;724;49.910;12.530;2023-11-19T16:06:01;7.90;99.90
1461;DHT22;724;49.910;12.530;2023-11-19T16:08:28;7.90;99.90
1461;DHT22;724;49.910;12.530;2023-11-19T16:10:55;7.90;99.90
1461;DHT22;724;49.910;12.530;2023-11-19T16:13:21;7.90;99.90
1461;DHT22;724;49.910;12.530;2023-11-19T16:15:48;8.10;99.90
1461;DHT22;724;49.910;12.530;2023-11-19T16:18:15;8.20;99.90
1461;DHT22;724;49.910;12.530;2023-11-19T16:20:42;8.00;99.90
1461;DHT22;724;49.910;12.530;2023-11-19T16:23:11;8.00;99.90
1461;DHT22;724;49.910;12.530;2023-11-19T16:25:38;8.00;99.90
1461;DHT22;724;49.910;12.530;2023-11-19T16:28:05;8.00;99.90